sensor_id;sensor_type;location;lat;lon;timestamp;P1;durP1;ratioP1;P2;durP2;ratioP2
12725;SDS011;6427;49.754;6.106;2023-03-12T00:01:44;15.63;;;5.73;;
12725;SDS011;6427;49.754;6.106;2023-03-12T00:04:11;14.83;;;6.07;;
12725;SDS011;6427;49.754;6.106;2023-03-12T00:06:39;11.10;;;6.07;;
12725;SDS011;6427;49.754;6.106;2023-03-12T00:09:08;17.23;;;6.50;;
12725;SDS011;6427;49.754;6.106;2023-03-12T00:11:35;11.37;;;6.17;;
12725;SDS011;6427;49.754;6.106;2023-03-12T00:14:03;13.30;;;6.30;;
12725;SDS011;6427;49.754;6.106;2023-03-12T00:16:31;9.77;;;6.20;;
12725;SDS011;6427;49.754;6.106;2023-03-12T00:18:59;11.03;;;6.43;;
12725;SDS011;6427;49.754;6.106;2023-03-12T00:21:27;11.70;;;6.30;;
12725;SDS011;6427;49.754;6.106;2023-03-12T00:23:54;10.67;;;5.70;;
12725;SDS011;6427;49.754;6.106;2023-03-12T00:26:22;12.50;;;5.47;;
12725;SDS011;6427;49.754;6.106;2023-03-12T00:28:50;15.53;;;5.20;;
12725;SDS011;6427;49.754;6.106;2023-03-12T00:31:19;12.23;;;4.57;;
12725;SDS011;6427;49.754;6.106;2023-03-12T00:33:45;12.40;;;5.33;;
12725;SDS011;6427;49.754;6.106;2023-03-12T00:36:13;8.77;;;4.57;;
12725;SDS011;6427;49.754;6.106;2023-03-12T00:38:40;8.13;;;4.23;;
12725;SDS011;6427;49.754;6.106;2023-03-12T00:41:08;7.80;;;4.67;;
12725;SDS011;6427;49.754;6.106;2023-03-12T00:43:35;10.95;;;5.62;;
12725;SDS011;6427;49.754;6.106;2023-03-12T00:46:03;10.13;;;4.20;;
12725;SDS011;6427;49.754;6.106;2023-03-12T00:48:30;9.40;;;4.77;;
12725;SDS011;6427;49.754;6.106;2023-03-12T00:50:58;10.83;;;4.80;;
12725;SDS011;6427;49.754;6.106;2023-03-12T00:53:26;8.47;;;4.40;;
12725;SDS011;6427;49.754;6.106;2023-03-12T00:55:54;9.00;;;4.80;;
12725;SDS011;6427;49.754;6.106;2023-03-12T00:58:21;8.90;;;4.17;;
12725;SDS011;6427;49.754;6.106;2023-03-12T01:00:49;7.23;;;4.13;;
12725;SDS011;6427;49.754;6.106;2023-03-12T01:03:17;10.03;;;5.00;;
12725;SDS011;6427;49.754;6.106;2023-03-12T01:05:44;8.00;;;4.60;;
12725;SDS011;6427;49.754;6.106;2023-03-12T01:08:13;11.00;;;4.43;;
12725;SDS011;6427;49.754;6.106;2023-03-12T01:10:41;10.03;;;4.13;;
12725;SDS011;6427;49.754;6.106;2023-03-12T01:13:08;7.17;;;4.37;;
12725;SDS011;6427;49.754;6.106;2023-03-12T01:15:35;8.10;;;4.67;;
12725;SDS011;6427;49.754;6.106;2023-03-12T01:18:04;9.80;;;4.27;;
12725;SDS011;6427;49.754;6.106;2023-03-12T01:20:31;8.70;;;4.37;;
12725;SDS011;6427;49.754;6.106;2023-03-12T01:22:59;9.82;;;5.60;;
12725;SDS011;6427;49.754;6.106;2023-03-12T01:25:26;10.47;;;4.40;;
12725;SDS011;6427;49.754;6.106;2023-03-12T01:27:54;7.50;;;4.40;;
12725;SDS011;6427;49.754;6.106;2023-03-12T01:30:21;9.80;;;4.97;;
12725;SDS011;6427;49.754;6.106;2023-03-12T01:32:50;8.37;;;5.00;;
12725;SDS011;6427;49.754;6.106;2023-03-12T01:35:17;8.90;;;4.40;;
12725;SDS011;6427;49.754;6.106;2023-03-12T01:37:44;14.20;;;5.03;;
12725;SDS011;6427;49.754;6.106;2023-03-12T01:40:19;10.90;;;4.67;;
12725;SDS011;6427;49.754;6.106;2023-03-12T01:42:53;8.37;;;4.87;;
12725;SDS011;6427;49.754;6.106;2023-03-12T01:48:18;11.17;;;5.03;;
12725;SDS011;6427;49.754;6.106;2023-03-12T01:50:46;10.80;;;5.40;;
12725;SDS011;6427;49.754;6.106;2023-03-12T01:53:13;8.83;;;4.77;;
12725;SDS011;6427;49.754;6.106;2023-03-12T01:55:41;9.53;;;4.60;;
12725;SDS011;6427;49.754;6.106;2023-03-12T01:58:09;8.03;;;4.83;;
12725;SDS011;6427;49.754;6.106;2023-03-12T02:00:36;8.00;;;4.77;;
12725;SDS011;6427;49.754;6.106;2023-03-12T02:03:05;9.50;;;4.60;;
12725;SDS011;6427;49.754;6.106;2023-03-12T02:05:33;7.97;;;4.80;;
12725;SDS011;6427;49.754;6.106;2023-03-12T02:08:15;8.50;;;4.87;;
12725;SDS011;6427;49.754;6.106;2023-03-12T02:10:42;9.10;;;4.23;;
12725;SDS011;6427;49.754;6.106;2023-03-12T02:13:10;7.97;;;4.77;;
12725;SDS011;6427;49.754;6.106;2023-03-12T02:15:37;9.43;;;4.73;;
12725;SDS011;6427;49.754;6.106;2023-03-12T02:18:06;6.77;;;4.03;;
12725;SDS011;6427;49.754;6.106;2023-03-12T02:20:55;8.53;;;4.40;;
12725;SDS011;6427;49.754;6.106;2023-03-12T02:23:28;11.20;;;4.57;;
12725;SDS011;6427;49.754;6.106;2023-03-12T02:26:04;7.63;;;4.57;;
12725;SDS011;6427;49.754;6.106;2023-03-12T02:28:32;8.73;;;4.23;;
12725;SDS011;6427;49.754;6.106;2023-03-12T02:31:01;10.98;;;6.10;;
12725;SDS011;6427;49.754;6.106;2023-03-12T02:33:27;9.23;;;5.10;;
12725;SDS011;6427;49.754;6.106;2023-03-12T02:35:54;7.03;;;4.67;;
12725;SDS011;6427;49.754;6.106;2023-03-12T02:38:33;8.80;;;4.93;;
12725;SDS011;6427;49.754;6.106;2023-03-12T02:41:47;8.53;;;4.97;;
12725;SDS011;6427;49.754;6.106;2023-03-12T02:43:27;7.80;;;4.03;;
12725;SDS011;6427;49.754;6.106;2023-03-12T02:45:54;7.60;;;4.70;;
12725;SDS011;6427;49.754;6.106;2023-03-12T02:48:22;6.27;;;4.17;;
12725;SDS011;6427;49.754;6.106;2023-03-12T02:50:50;6.97;;;3.60;;
12725;SDS011;6427;49.754;6.106;2023-03-12T02:53:18;6.70;;;3.87;;
12725;SDS011;6427;49.754;6.106;2023-03-12T02:55:45;11.63;;;5.10;;
12725;SDS011;6427;49.754;6.106;2023-03-12T02:58:14;10.43;;;4.93;;
12725;SDS011;6427;49.754;6.106;2023-03-12T03:00:41;9.63;;;4.90;;
12725;SDS011;6427;49.754;6.106;2023-03-12T03:03:09;11.30;;;5.30;;
12725;SDS011;6427;49.754;6.106;2023-03-12T03:05:37;8.10;;;4.90;;
12725;SDS011;6427;49.754;6.106;2023-03-12T03:08:05;14.93;;;7.63;;
12725;SDS011;6427;49.754;6.106;2023-03-12T03:10:33;12.53;;;6.20;;
12725;SDS011;6427;49.754;6.106;2023-03-12T03:13:00;9.10;;;5.53;;
12725;SDS011;6427;49.754;6.106;2023-03-12T03:15:28;9.60;;;5.93;;
12725;SDS011;6427;49.754;6.106;2023-03-12T03:17:56;9.10;;;5.40;;
12725;SDS011;6427;49.754;6.106;2023-03-12T03:20:24;8.40;;;4.90;;
12725;SDS011;6427;49.754;6.106;2023-03-12T03:22:52;9.10;;;5.17;;
12725;SDS011;6427;49.754;6.106;2023-03-12T03:25:19;8.33;;;4.80;;
12725;SDS011;6427;49.754;6.106;2023-03-12T03:27:47;13.23;;;5.20;;
12725;SDS011;6427;49.754;6.106;2023-03-12T03:30:14;10.60;;;6.13;;
12725;SDS011;6427;49.754;6.106;2023-03-12T03:32:43;7.53;;;5.47;;
12725;SDS011;6427;49.754;6.106;2023-03-12T03:35:10;11.70;;;4.97;;
12725;SDS011;6427;49.754;6.106;2023-03-12T03:37:39;7.03;;;4.50;;
12725;SDS011;6427;49.754;6.106;2023-03-12T03:40:06;9.07;;;4.63;;
12725;SDS011;6427;49.754;6.106;2023-03-12T03:42:34;9.52;;;5.50;;
12725;SDS011;6427;49.754;6.106;2023-03-12T03:45:01;6.20;;;5.17;;
12725;SDS011;6427;49.754;6.106;2023-03-12T03:47:29;10.53;;;4.87;;
12725;SDS011;6427;49.754;6.106;2023-03-12T03:49:57;5.57;;;3.90;;
12725;SDS011;6427;49.754;6.106;2023-03-12T03:52:25;7.00;;;4.20;;
12725;SDS011;6427;49.754;6.106;2023-03-12T03:54:54;7.03;;;4.27;;
12725;SDS011;6427;49.754;6.106;2023-03-12T03:57:21;7.20;;;4.20;;
12725;SDS011;6427;49.754;6.106;2023-03-12T03:59:49;7.97;;;4.67;;
12725;SDS011;6427;49.754;6.106;2023-03-12T04:02:16;12.43;;;4.90;;
12725;SDS011;6427;49.754;6.106;2023-03-12T04:04:44;10.07;;;4.73;;
12725;SDS011;6427;49.754;6.106;2023-03-12T04:07:11;9.77;;;4.60;;
12725;SDS011;6427;49.754;6.106;2023-03-12T04:09:40;8.93;;;4.30;;
12725;SDS011;6427;49.754;6.106;2023-03-12T04:12:07;11.52;;;5.85;;
12725;SDS011;6427;49.754;6.106;2023-03-12T04:14:38;10.77;;;5.17;;
12725;SDS011;6427;49.754;6.106;2023-03-12T04:17:03;8.50;;;4.53;;
12725;SDS011;6427;49.754;6.106;2023-03-12T04:19:31;10.07;;;5.10;;
12725;SDS011;6427;49.754;6.106;2023-03-12T04:21:58;10.87;;;5.00;;
12725;SDS011;6427;49.754;6.106;2023-03-12T04:24:26;11.30;;;6.10;;
12725;SDS011;6427;49.754;6.106;2023-03-12T04:26:54;8.43;;;5.27;;
12725;SDS011;6427;49.754;6.106;2023-03-12T04:29:22;6.03;;;4.40;;
12725;SDS011;6427;49.754;6.106;2023-03-12T04:31:50;8.17;;;5.10;;
12725;SDS011;6427;49.754;6.106;2023-03-12T04:34:18;7.50;;;4.07;;
12725;SDS011;6427;49.754;6.106;2023-03-12T04:36:46;10.80;;;4.47;;
12725;SDS011;6427;49.754;6.106;2023-03-12T04:39:17;9.70;;;4.87;;
12725;SDS011;6427;49.754;6.106;2023-03-12T04:41:44;9.93;;;5.70;;
12725;SDS011;6427;49.754;6.106;2023-03-12T04:44:12;10.10;;;4.63;;
12725;SDS011;6427;49.754;6.106;2023-03-12T04:46:39;10.60;;;5.90;;
12725;SDS011;6427;49.754;6.106;2023-03-12T04:49:07;8.60;;;5.27;;
12725;SDS011;6427;49.754;6.106;2023-03-12T04:51:34;13.53;;;5.60;;
12725;SDS011;6427;49.754;6.106;2023-03-12T04:54:02;14.97;;;6.30;;
12725;SDS011;6427;49.754;6.106;2023-03-12T04:56:29;12.68;;;7.60;;
12725;SDS011;6427;49.754;6.106;2023-03-12T04:58:57;9.87;;;6.33;;
12725;SDS011;6427;49.754;6.106;2023-03-12T05:01:25;15.15;;;8.25;;
12725;SDS011;6427;49.754;6.106;2023-03-12T05:03:52;11.03;;;6.87;;
12725;SDS011;6427;49.754;6.106;2023-03-12T05:06:21;11.57;;;6.33;;
12725;SDS011;6427;49.754;6.106;2023-03-12T05:08:48;10.63;;;6.40;;
12725;SDS011;6427;49.754;6.106;2023-03-12T05:11:15;15.63;;;6.73;;
12725;SDS011;6427;49.754;6.106;2023-03-12T05:13:44;9.63;;;6.23;;
12725;SDS011;6427;49.754;6.106;2023-03-12T05:16:12;14.07;;;6.77;;
12725;SDS011;6427;49.754;6.106;2023-03-12T05:18:39;11.67;;;6.13;;
12725;SDS011;6427;49.754;6.106;2023-03-12T05:21:17;15.60;;;6.73;;
12725;SDS011;6427;49.754;6.106;2023-03-12T05:23:46;10.33;;;5.63;;
12725;SDS011;6427;49.754;6.106;2023-03-12T05:26:25;15.17;;;6.30;;
12725;SDS011;6427;49.754;6.106;2023-03-12T05:28:47;14.97;;;6.93;;
12725;SDS011;6427;49.754;6.106;2023-03-12T05:31:14;10.37;;;6.10;;
12725;SDS011;6427;49.754;6.106;2023-03-12T05:33:43;15.17;;;6.93;;
12725;SDS011;6427;49.754;6.106;2023-03-12T05:36:11;12.73;;;6.80;;
12725;SDS011;6427;49.754;6.106;2023-03-12T05:38:38;13.50;;;7.27;;
12725;SDS011;6427;49.754;6.106;2023-03-12T05:41:06;9.90;;;6.57;;
12725;SDS011;6427;49.754;6.106;2023-03-12T05:43:33;13.43;;;7.00;;
12725;SDS011;6427;49.754;6.106;2023-03-12T05:46:02;18.27;;;10.20;;
12725;SDS011;6427;49.754;6.106;2023-03-12T05:48:29;13.23;;;7.97;;
12725;SDS011;6427;49.754;6.106;2023-03-12T05:50:56;13.90;;;10.18;;
12725;SDS011;6427;49.754;6.106;2023-03-12T05:53:24;16.07;;;9.03;;
12725;SDS011;6427;49.754;6.106;2023-03-12T05:55:51;14.07;;;8.77;;
12725;SDS011;6427;49.754;6.106;2023-03-12T05:58:19;14.63;;;7.90;;
12725;SDS011;6427;49.754;6.106;2023-03-12T06:00:46;14.03;;;7.83;;
12725;SDS011;6427;49.754;6.106;2023-03-12T06:03:14;12.47;;;7.70;;
12725;SDS011;6427;49.754;6.106;2023-03-12T06:05:42;11.30;;;6.97;;
12725;SDS011;6427;49.754;6.106;2023-03-12T06:08:09;13.27;;;7.10;;
12725;SDS011;6427;49.754;6.106;2023-03-12T06:10:37;18.12;;;10.40;;
12725;SDS011;6427;49.754;6.106;2023-03-12T06:13:04;13.30;;;8.03;;
12725;SDS011;6427;49.754;6.106;2023-03-12T06:15:32;11.57;;;7.87;;
12725;SDS011;6427;49.754;6.106;2023-03-12T06:17:59;11.05;;;9.85;;
12725;SDS011;6427;49.754;6.106;2023-03-12T06:20:27;11.30;;;8.03;;
12725;SDS011;6427;49.754;6.106;2023-03-12T06:22:54;11.10;;;7.97;;
12725;SDS011;6427;49.754;6.106;2023-03-12T06:25:22;12.33;;;7.63;;
12725;SDS011;6427;49.754;6.106;2023-03-12T06:27:50;10.73;;;7.03;;
12725;SDS011;6427;49.754;6.106;2023-03-12T06:30:18;16.83;;;8.60;;
12725;SDS011;6427;49.754;6.106;2023-03-12T06:32:45;14.93;;;8.50;;
12725;SDS011;6427;49.754;6.106;2023-03-12T06:35:13;14.17;;;8.33;;
12725;SDS011;6427;49.754;6.106;2023-03-12T06:37:40;14.33;;;8.03;;
12725;SDS011;6427;49.754;6.106;2023-03-12T06:40:08;16.73;;;9.50;;
12725;SDS011;6427;49.754;6.106;2023-03-12T06:42:36;13.17;;;8.90;;
12725;SDS011;6427;49.754;6.106;2023-03-12T06:45:03;13.47;;;8.10;;
12725;SDS011;6427;49.754;6.106;2023-03-12T06:47:31;18.73;;;10.10;;
12725;SDS011;6427;49.754;6.106;2023-03-12T06:49:58;20.67;;;10.77;;
12725;SDS011;6427;49.754;6.106;2023-03-12T06:52:26;12.73;;;8.03;;
12725;SDS011;6427;49.754;6.106;2023-03-12T06:54:53;12.43;;;8.43;;
12725;SDS011;6427;49.754;6.106;2023-03-12T06:57:21;13.00;;;8.03;;
12725;SDS011;6427;49.754;6.106;2023-03-12T06:59:49;11.70;;;8.27;;
12725;SDS011;6427;49.754;6.106;2023-03-12T07:02:16;12.47;;;8.43;;
12725;SDS011;6427;49.754;6.106;2023-03-12T07:04:44;12.70;;;7.80;;
12725;SDS011;6427;49.754;6.106;2023-03-12T07:07:14;12.77;;;8.70;;
12725;SDS011;6427;49.754;6.106;2023-03-12T07:09:42;12.17;;;8.33;;
12725;SDS011;6427;49.754;6.106;2023-03-12T07:12:09;18.27;;;9.23;;
12725;SDS011;6427;49.754;6.106;2023-03-12T07:14:38;14.33;;;8.77;;
12725;SDS011;6427;49.754;6.106;2023-03-12T07:17:06;15.77;;;9.77;;
12725;SDS011;6427;49.754;6.106;2023-03-12T07:19:33;11.73;;;9.03;;
12725;SDS011;6427;49.754;6.106;2023-03-12T07:22:01;12.03;;;9.20;;
12725;SDS011;6427;49.754;6.106;2023-03-12T07:24:28;12.03;;;8.67;;
12725;SDS011;6427;49.754;6.106;2023-03-12T07:26:56;16.27;;;9.83;;
12725;SDS011;6427;49.754;6.106;2023-03-12T07:29:24;12.93;;;9.73;;
12725;SDS011;6427;49.754;6.106;2023-03-12T07:31:52;17.00;;;11.10;;
12725;SDS011;6427;49.754;6.106;2023-03-12T07:34:20;12.80;;;9.57;;
12725;SDS011;6427;49.754;6.106;2023-03-12T07:36:47;15.30;;;9.63;;
12725;SDS011;6427;49.754;6.106;2023-03-12T07:39:15;20.23;;;13.93;;
12725;SDS011;6427;49.754;6.106;2023-03-12T07:41:42;19.20;;;12.33;;
12725;SDS011;6427;49.754;6.106;2023-03-12T07:44:10;16.20;;;10.20;;
12725;SDS011;6427;49.754;6.106;2023-03-12T07:46:38;16.55;;;12.50;;
12725;SDS011;6427;49.754;6.106;2023-03-12T07:49:05;12.27;;;9.73;;
12725;SDS011;6427;49.754;6.106;2023-03-12T07:51:33;14.93;;;9.83;;
12725;SDS011;6427;49.754;6.106;2023-03-12T07:54:00;16.57;;;9.53;;
12725;SDS011;6427;49.754;6.106;2023-03-12T07:56:37;12.93;;;8.63;;
12725;SDS011;6427;49.754;6.106;2023-03-12T07:59:04;18.43;;;11.93;;
12725;SDS011;6427;49.754;6.106;2023-03-12T08:01:32;16.97;;;10.83;;
12725;SDS011;6427;49.754;6.106;2023-03-12T08:04:00;13.27;;;9.33;;
12725;SDS011;6427;49.754;6.106;2023-03-12T08:06:27;17.27;;;9.63;;
12725;SDS011;6427;49.754;6.106;2023-03-12T08:08:54;14.10;;;9.23;;
12725;SDS011;6427;49.754;6.106;2023-03-12T08:11:22;17.83;;;12.98;;
12725;SDS011;6427;49.754;6.106;2023-03-12T08:13:49;14.67;;;10.50;;
12725;SDS011;6427;49.754;6.106;2023-03-12T08:16:17;11.97;;;9.10;;
12725;SDS011;6427;49.754;6.106;2023-03-12T08:18:44;13.27;;;9.40;;
12725;SDS011;6427;49.754;6.106;2023-03-12T08:21:12;15.83;;;10.40;;
12725;SDS011;6427;49.754;6.106;2023-03-12T08:23:40;15.90;;;10.20;;
12725;SDS011;6427;49.754;6.106;2023-03-12T08:26:07;14.43;;;10.00;;
12725;SDS011;6427;49.754;6.106;2023-03-12T08:28:35;13.07;;;9.70;;
12725;SDS011;6427;49.754;6.106;2023-03-12T08:31:02;16.92;;;12.70;;
12725;SDS011;6427;49.754;6.106;2023-03-12T08:33:30;14.37;;;10.63;;
12725;SDS011;6427;49.754;6.106;2023-03-12T08:35:58;16.73;;;10.73;;
12725;SDS011;6427;49.754;6.106;2023-03-12T08:38:26;14.40;;;10.03;;
12725;SDS011;6427;49.754;6.106;2023-03-12T08:40:54;15.13;;;11.20;;
12725;SDS011;6427;49.754;6.106;2023-03-12T08:43:21;13.50;;;9.50;;
12725;SDS011;6427;49.754;6.106;2023-03-12T08:45:55;15.77;;;10.23;;
12725;SDS011;6427;49.754;6.106;2023-03-12T08:48:19;16.40;;;10.00;;
12725;SDS011;6427;49.754;6.106;2023-03-12T08:50:46;14.70;;;10.40;;
12725;SDS011;6427;49.754;6.106;2023-03-12T08:53:14;14.30;;;9.33;;
12725;SDS011;6427;49.754;6.106;2023-03-12T08:55:42;13.93;;;10.83;;
12725;SDS011;6427;49.754;6.106;2023-03-12T08:58:09;15.00;;;10.70;;
12725;SDS011;6427;49.754;6.106;2023-03-12T09:00:37;14.53;;;9.93;;
12725;SDS011;6427;49.754;6.106;2023-03-12T09:03:05;14.07;;;9.87;;
12725;SDS011;6427;49.754;6.106;2023-03-12T09:05:33;14.23;;;10.00;;
12725;SDS011;6427;49.754;6.106;2023-03-12T09:08:00;12.90;;;9.43;;
12725;SDS011;6427;49.754;6.106;2023-03-12T09:10:28;14.53;;;10.13;;
12725;SDS011;6427;49.754;6.106;2023-03-12T09:12:56;16.23;;;10.80;;
12725;SDS011;6427;49.754;6.106;2023-03-12T09:15:24;16.15;;;12.10;;
12725;SDS011;6427;49.754;6.106;2023-03-12T09:17:51;15.70;;;10.43;;
12725;SDS011;6427;49.754;6.106;2023-03-12T09:20:19;15.33;;;10.03;;
12725;SDS011;6427;49.754;6.106;2023-03-12T09:22:46;16.07;;;10.27;;
12725;SDS011;6427;49.754;6.106;2023-03-12T09:25:14;12.63;;;9.20;;
12725;SDS011;6427;49.754;6.106;2023-03-12T09:27:42;16.33;;;10.17;;
12725;SDS011;6427;49.754;6.106;2023-03-12T09:30:14;14.73;;;9.50;;
12725;SDS011;6427;49.754;6.106;2023-03-12T09:32:37;13.97;;;9.73;;
12725;SDS011;6427;49.754;6.106;2023-03-12T09:35:05;12.20;;;9.30;;
12725;SDS011;6427;49.754;6.106;2023-03-12T09:37:33;15.93;;;10.03;;
12725;SDS011;6427;49.754;6.106;2023-03-12T09:40:00;16.87;;;12.65;;
12725;SDS011;6427;49.754;6.106;2023-03-12T09:42:35;16.63;;;10.40;;
12725;SDS011;6427;49.754;6.106;2023-03-12T09:45:13;14.97;;;9.40;;
12725;SDS011;6427;49.754;6.106;2023-03-12T09:47:54;17.30;;;10.37;;
12725;SDS011;6427;49.754;6.106;2023-03-12T09:53:01;14.43;;;9.50;;
12725;SDS011;6427;49.754;6.106;2023-03-12T09:55:27;18.67;;;13.18;;
12725;SDS011;6427;49.754;6.106;2023-03-12T09:57:55;20.33;;;11.33;;
12725;SDS011;6427;49.754;6.106;2023-03-12T10:00:23;19.97;;;11.43;;
12725;SDS011;6427;49.754;6.106;2023-03-12T10:05:42;19.60;;;11.23;;
12725;SDS011;6427;49.754;6.106;2023-03-12T10:08:20;19.43;;;10.07;;
12725;SDS011;6427;49.754;6.106;2023-03-12T10:10:48;27.48;;;11.95;;
12725;SDS011;6427;49.754;6.106;2023-03-12T10:13:32;21.93;;;9.73;;
12725;SDS011;6427;49.754;6.106;2023-03-12T10:18:54;15.17;;;8.20;;
12725;SDS011;6427;49.754;6.106;2023-03-12T10:21:24;14.47;;;7.17;;
12725;SDS011;6427;49.754;6.106;2023-03-12T10:24:03;19.70;;;8.40;;
12725;SDS011;6427;49.754;6.106;2023-03-12T10:26:29;14.80;;;7.47;;
12725;SDS011;6427;49.754;6.106;2023-03-12T10:34:43;18.57;;;4.87;;
12725;SDS011;6427;49.754;6.106;2023-03-12T10:39:48;22.40;;;5.00;;
12725;SDS011;6427;49.754;6.106;2023-03-12T10:42:17;25.57;;;6.03;;
12725;SDS011;6427;49.754;6.106;2023-03-12T10:44:44;23.35;;;6.72;;
12725;SDS011;6427;49.754;6.106;2023-03-12T10:47:37;18.23;;;5.00;;
12725;SDS011;6427;49.754;6.106;2023-03-12T10:50:17;20.07;;;5.40;;
12725;SDS011;6427;49.754;6.106;2023-03-12T10:52:39;14.17;;;4.77;;
12725;SDS011;6427;49.754;6.106;2023-03-12T10:55:11;23.17;;;5.00;;
12725;SDS011;6427;49.754;6.106;2023-03-12T10:57:38;27.90;;;5.53;;
12725;SDS011;6427;49.754;6.106;2023-03-12T11:00:08;25.80;;;5.97;;
12725;SDS011;6427;49.754;6.106;2023-03-12T11:02:39;18.73;;;4.53;;
12725;SDS011;6427;49.754;6.106;2023-03-12T11:05:22;27.90;;;6.10;;
12725;SDS011;6427;49.754;6.106;2023-03-12T11:07:49;24.53;;;5.40;;
12725;SDS011;6427;49.754;6.106;2023-03-12T11:10:18;19.73;;;4.93;;
12725;SDS011;6427;49.754;6.106;2023-03-12T11:12:57;17.93;;;3.93;;
12725;SDS011;6427;49.754;6.106;2023-03-12T11:15:25;21.87;;;4.60;;
12725;SDS011;6427;49.754;6.106;2023-03-12T11:17:48;24.03;;;5.40;;
12725;SDS011;6427;49.754;6.106;2023-03-12T11:22:48;22.47;;;4.30;;
12725;SDS011;6427;49.754;6.106;2023-03-12T11:25:26;19.35;;;4.47;;
12725;SDS011;6427;49.754;6.106;2023-03-12T11:27:44;19.97;;;4.03;;
12725;SDS011;6427;49.754;6.106;2023-03-12T11:30:11;18.77;;;4.10;;
12725;SDS011;6427;49.754;6.106;2023-03-12T11:32:42;19.95;;;4.65;;
12725;SDS011;6427;49.754;6.106;2023-03-12T11:35:09;14.00;;;4.07;;
12725;SDS011;6427;49.754;6.106;2023-03-12T11:37:51;18.57;;;3.87;;
12725;SDS011;6427;49.754;6.106;2023-03-12T11:48:15;15.50;;;4.60;;
12725;SDS011;6427;49.754;6.106;2023-03-12T11:53:19;17.30;;;3.77;;
12725;SDS011;6427;49.754;6.106;2023-03-12T11:55:46;15.80;;;3.70;;
12725;SDS011;6427;49.754;6.106;2023-03-12T12:01:12;23.83;;;3.43;;
12725;SDS011;6427;49.754;6.106;2023-03-12T12:03:33;18.63;;;4.07;;
12725;SDS011;6427;49.754;6.106;2023-03-12T12:06:22;14.47;;;3.03;;
12725;SDS011;6427;49.754;6.106;2023-03-12T12:08:55;16.57;;;4.47;;
12725;SDS011;6427;49.754;6.106;2023-03-12T12:17:39;21.17;;;4.57;;
12725;SDS011;6427;49.754;6.106;2023-03-12T12:30:58;18.87;;;3.10;;
12725;SDS011;6427;49.754;6.106;2023-03-12T12:33:53;19.17;;;3.00;;
12725;SDS011;6427;49.754;6.106;2023-03-12T12:36:16;11.13;;;2.10;;
12725;SDS011;6427;49.754;6.106;2023-03-12T12:38:48;18.30;;;3.37;;
12725;SDS011;6427;49.754;6.106;2023-03-12T12:41:14;15.65;;;3.42;;
12725;SDS011;6427;49.754;6.106;2023-03-12T12:46:18;16.40;;;3.10;;
12725;SDS011;6427;49.754;6.106;2023-03-12T12:48:49;18.23;;;4.00;;
12725;SDS011;6427;49.754;6.106;2023-03-12T12:51:24;11.47;;;2.77;;
12725;SDS011;6427;49.754;6.106;2023-03-12T12:54:03;22.93;;;3.53;;
12725;SDS011;6427;49.754;6.106;2023-03-12T12:56:43;14.80;;;3.40;;
12725;SDS011;6427;49.754;6.106;2023-03-12T12:59:39;22.23;;;4.47;;
12725;SDS011;6427;49.754;6.106;2023-03-12T13:02:18;16.10;;;3.40;;
12725;SDS011;6427;49.754;6.106;2023-03-12T13:04:41;15.83;;;3.20;;
12725;SDS011;6427;49.754;6.106;2023-03-12T13:09:50;14.60;;;2.93;;
12725;SDS011;6427;49.754;6.106;2023-03-12T13:12:41;17.87;;;3.20;;
12725;SDS011;6427;49.754;6.106;2023-03-12T13:23:28;23.27;;;4.50;;
12725;SDS011;6427;49.754;6.106;2023-03-12T13:28:59;18.25;;;4.20;;
12725;SDS011;6427;49.754;6.106;2023-03-12T13:33:55;24.93;;;3.13;;
12725;SDS011;6427;49.754;6.106;2023-03-12T13:36:24;22.67;;;3.70;;
12725;SDS011;6427;49.754;6.106;2023-03-12T13:47:02;15.53;;;3.23;;
12725;SDS011;6427;49.754;6.106;2023-03-12T13:49:57;15.63;;;3.33;;
12725;SDS011;6427;49.754;6.106;2023-03-12T13:52:30;23.33;;;3.70;;
12725;SDS011;6427;49.754;6.106;2023-03-12T13:57:49;18.63;;;3.70;;
12725;SDS011;6427;49.754;6.106;2023-03-12T14:03:04;20.17;;;4.60;;
12725;SDS011;6427;49.754;6.106;2023-03-12T14:05:32;16.40;;;3.50;;
12725;SDS011;6427;49.754;6.106;2023-03-12T14:08:10;20.58;;;4.30;;
12725;SDS011;6427;49.754;6.106;2023-03-12T14:16:09;17.23;;;2.67;;
12725;SDS011;6427;49.754;6.106;2023-03-12T14:18:35;22.80;;;3.80;;
12725;SDS011;6427;49.754;6.106;2023-03-12T14:21:06;14.70;;;2.93;;
12725;SDS011;6427;49.754;6.106;2023-03-12T14:23:33;18.73;;;3.43;;
12725;SDS011;6427;49.754;6.106;2023-03-12T14:26:02;18.40;;;3.50;;
12725;SDS011;6427;49.754;6.106;2023-03-12T14:28:29;15.60;;;3.23;;
12725;SDS011;6427;49.754;6.106;2023-03-12T14:31:00;12.30;;;2.90;;
12725;SDS011;6427;49.754;6.106;2023-03-12T14:36:13;18.30;;;2.80;;
12725;SDS011;6427;49.754;6.106;2023-03-12T14:38:42;16.43;;;3.33;;
12725;SDS011;6427;49.754;6.106;2023-03-12T14:41:10;10.43;;;3.17;;
12725;SDS011;6427;49.754;6.106;2023-03-12T14:43:49;21.00;;;3.60;;
12725;SDS011;6427;49.754;6.106;2023-03-12T14:46:15;12.63;;;3.17;;
12725;SDS011;6427;49.754;6.106;2023-03-12T14:48:45;15.67;;;3.07;;
12725;SDS011;6427;49.754;6.106;2023-03-12T14:51:18;19.87;;;4.17;;
12725;SDS011;6427;49.754;6.106;2023-03-12T14:53:45;19.63;;;3.37;;
12725;SDS011;6427;49.754;6.106;2023-03-12T14:56:13;24.07;;;3.93;;
12725;SDS011;6427;49.754;6.106;2023-03-12T14:58:44;15.17;;;3.37;;
12725;SDS011;6427;49.754;6.106;2023-03-12T15:01:11;19.90;;;3.30;;
12725;SDS011;6427;49.754;6.106;2023-03-12T15:03:46;15.60;;;3.10;;
12725;SDS011;6427;49.754;6.106;2023-03-12T15:06:28;16.80;;;3.33;;
12725;SDS011;6427;49.754;6.106;2023-03-12T15:08:40;17.80;;;2.97;;
12725;SDS011;6427;49.754;6.106;2023-03-12T15:11:07;13.60;;;3.40;;
12725;SDS011;6427;49.754;6.106;2023-03-12T15:13:35;17.90;;;2.90;;
12725;SDS011;6427;49.754;6.106;2023-03-12T15:16:02;21.00;;;4.00;;
12725;SDS011;6427;49.754;6.106;2023-03-12T15:18:31;16.60;;;3.23;;
12725;SDS011;6427;49.754;6.106;2023-03-12T15:20:59;13.00;;;2.63;;
12725;SDS011;6427;49.754;6.106;2023-03-12T15:23:27;13.33;;;2.87;;
12725;SDS011;6427;49.754;6.106;2023-03-12T15:28:43;15.13;;;3.07;;
12725;SDS011;6427;49.754;6.106;2023-03-12T15:33:41;17.17;;;2.90;;
12725;SDS011;6427;49.754;6.106;2023-03-12T15:38:46;14.85;;;3.25;;
12725;SDS011;6427;49.754;6.106;2023-03-12T15:41:20;16.63;;;3.50;;
12725;SDS011;6427;49.754;6.106;2023-03-12T15:43:55;14.43;;;2.63;;
12725;SDS011;6427;49.754;6.106;2023-03-12T15:46:23;16.57;;;3.17;;
12725;SDS011;6427;49.754;6.106;2023-03-12T15:48:51;13.93;;;2.63;;
12725;SDS011;6427;49.754;6.106;2023-03-12T15:51:28;10.50;;;2.53;;
12725;SDS011;6427;49.754;6.106;2023-03-12T15:54:01;12.23;;;3.07;;
12725;SDS011;6427;49.754;6.106;2023-03-12T15:56:24;17.75;;;3.60;;
12725;SDS011;6427;49.754;6.106;2023-03-12T15:58:59;14.73;;;3.00;;
12725;SDS011;6427;49.754;6.106;2023-03-12T16:01:29;11.27;;;2.40;;
12725;SDS011;6427;49.754;6.106;2023-03-12T16:03:57;14.20;;;3.30;;
12725;SDS011;6427;49.754;6.106;2023-03-12T16:06:25;13.50;;;2.53;;
12725;SDS011;6427;49.754;6.106;2023-03-12T16:08:57;13.43;;;3.43;;
12725;SDS011;6427;49.754;6.106;2023-03-12T16:11:28;16.67;;;3.17;;
12725;SDS011;6427;49.754;6.106;2023-03-12T16:14:01;13.27;;;3.27;;
12725;SDS011;6427;49.754;6.106;2023-03-12T16:16:31;16.23;;;4.18;;
12725;SDS011;6427;49.754;6.106;2023-03-12T16:18:59;16.97;;;3.23;;
12725;SDS011;6427;49.754;6.106;2023-03-12T16:21:26;14.03;;;3.23;;
12725;SDS011;6427;49.754;6.106;2023-03-12T16:23:54;19.53;;;3.53;;
12725;SDS011;6427;49.754;6.106;2023-03-12T16:26:22;13.63;;;2.60;;
12725;SDS011;6427;49.754;6.106;2023-03-12T16:28:50;18.47;;;3.27;;
12725;SDS011;6427;49.754;6.106;2023-03-12T16:31:17;10.80;;;3.53;;
12725;SDS011;6427;49.754;6.106;2023-03-12T16:33:45;14.27;;;3.10;;
12725;SDS011;6427;49.754;6.106;2023-03-12T16:36:13;18.23;;;2.90;;
12725;SDS011;6427;49.754;6.106;2023-03-12T16:38:40;12.10;;;3.13;;
12725;SDS011;6427;49.754;6.106;2023-03-12T16:41:16;20.17;;;3.53;;